Terminal Aerodrome Forecast
Issued by NWS Springfield, MO

Home | Current Version | Previous Version | Text Only | Print | Product List | Glossary On
Versions: 1 2 3 4 5 6 7 8 9 10 11 12 13 14 15 16 17 18 19 20 21 22 23 24 25 26 27 28 29 30
590
FTUS43 KSGF 211527 AAC
TAFSGF
TAF AMD
KSGF 211527Z 2115/2212 35008KT 6SM BR BKN008
     FM211900 36008KT P6SM BKN010
     FM212000 36009KT P6SM FEW015 SCT250
     FM220100 VRB03KT 5SM BR FEW250
     FM220900 VRB03KT 1SM BR FEW100=

USA.gov is the U.S. government's official web portal to all federal, state and local government web resources and services.